Time;durP1;ratioP1;P1;durP2;ratioP2;P2;SDS_P1;SDS_P2;PMS_P1;PMS_P2;Temp;Humidity;BMP_temperature;BMP_pressure;BME280_temperature;BME280_humidity;BME280_pressure;Samples;Min_cycle;Max_cycle;Signal;HPM_P1;HPM_P2
2022/08/31 00:05:55;;;;;;;0.10;0.10;;;;;;;;;;5061330;28;20258;-66
2022/08/31 00:08:21;;;;;;;0.08;0.08;;;;;;;;;;5074637;28;20271;-66
2022/08/31 00:10:49;;;;;;;0.00;0.00;;;;;;;;;;5061294;28;20302;-65
2022/08/31 00:13:16;;;;;;;0.10;0.10;;;;;;;;;;5075610;28;20230;-65
2022/08/31 00:15:42;;;;;;;0.10;0.10;;;;;;;;;;5060533;28;20709;-65
2022/08/31 00:18:09;;;;;;;0.10;0.10;;;;;;;;;;5076340;28;20285;-66
2022/08/31 00:20:36;;;;;;;0.05;0.05;;;;;;;;;;5059620;28;20243;-66
2022/08/31 00:23:02;;;;;;;0.00;0.00;;;;;;;;;;5076838;28;20234;-65
2022/08/31 00:25:28;;;;;;;0.10;0.10;;;;;;;;;;5058448;28;20245;-66
2022/08/31 00:27:56;;;;;;;0.00;0.00;;;;;;;;;;5077954;28;20208;-67
2022/08/31 00:30:23;;;;;;;0.00;0.00;;;;;;;;;;5057602;28;20205;-67
2022/08/31 00:32:49;;;;;;;0.00;0.00;;;;;;;;;;5078579;28;20504;-66
2022/08/31 00:35:16;;;;;;;0.03;0.03;;;;;;;;;;5056805;28;20204;-66
2022/08/31 00:37:42;;;;;;;0.10;0.10;;;;;;;;;;5079182;28;20200;-66
2022/08/31 00:40:09;;;;;;;0.00;0.00;;;;;;;;;;5055865;28;20204;-65
2022/08/31 00:42:35;;;;;;;0.10;0.10;;;;;;;;;;5080258;28;20228;-66
2022/08/31 00:45:03;;;;;;;0.05;0.05;;;;;;;;;;5065220;28;20212;-66
2022/08/31 00:47:30;;;;;;;0.10;0.10;;;;;;;;;;5053656;28;20378;-66
2022/08/31 00:49:57;;;;;;;0.03;0.03;;;;;;;;;;5064826;28;20212;-66
2022/08/31 00:52:25;;;;;;;0.00;0.00;;;;;;;;;;5070477;28;20235;-65
2022/08/31 00:54:54;;;;;;;0.00;0.00;;;;;;;;;;5064939;28;20212;-65
2022/08/31 00:57:20;;;;;;;0.03;0.03;;;;;;;;;;5069838;28;20241;-64
2022/08/31 00:59:48;;;;;;;0.05;0.05;;;;;;;;;;5064828;28;20204;-66
2022/08/31 01:02:16;;;;;;;0.10;0.10;;;;;;;;;;5069830;28;20227;-66
2022/08/31 01:04:42;;;;;;;0.05;0.05;;;;;;;;;;5064383;28;20208;-66
2022/08/31 01:07:09;;;;;;;0.00;0.00;;;;;;;;;;5069739;28;20251;-65
2022/08/31 01:09:37;;;;;;;0.10;0.10;;;;;;;;;;5064169;28;20204;-66
2022/08/31 01:12:04;;;;;;;0.00;0.00;;;;;;;;;;5069338;28;20239;-64
2022/08/31 01:14:30;;;;;;;0.10;0.10;;;;;;;;;;5064425;28;20449;-65
2022/08/31 01:16:57;;;;;;;0.10;0.10;;;;;;;;;;5067477;28;20582;-66
2022/08/31 01:19:28;;;;;;;0.00;0.00;;;;;;;;;;5065213;28;20203;-65
2022/08/31 01:21:56;;;;;;;0.00;0.00;;;;;;;;;;5067986;28;20306;-66
2022/08/31 01:24:25;;;;;;;0.10;0.10;;;;;;;;;;5065242;28;20276;-66
2022/08/31 01:26:53;;;;;;;0.00;0.00;;;;;;;;;;5067402;28;20249;-65
2022/08/31 01:29:19;;;;;;;0.10;0.10;;;;;;;;;;5065368;28;20239;-64
2022/08/31 01:31:46;;;;;;;0.10;0.10;;;;;;;;;;5066859;28;20236;-66
2022/08/31 01:34:13;;;;;;;0.00;0.00;;;;;;;;;;5066549;28;20508;-66
2022/08/31 01:36:41;;;;;;;0.00;0.00;;;;;;;;;;5066003;28;20247;-65
2022/08/31 01:39:08;;;;;;;0.00;0.00;;;;;;;;;;5067197;28;20254;-66
2022/08/31 01:41:40;;;;;;;0.00;0.00;;;;;;;;;;5065010;28;20235;-67
2022/08/31 01:44:06;;;;;;;0.10;0.10;;;;;;;;;;5067317;28;20206;-65
2022/08/31 01:46:32;;;;;;;0.03;0.03;;;;;;;;;;5064764;28;20289;-66
2022/08/31 01:48:59;;;;;;;0.10;0.10;;;;;;;;;;5068206;28;20204;-66
2022/08/31 01:51:25;;;;;;;0.10;0.10;;;;;;;;;;5063717;28;20311;-65
2022/08/31 01:53:52;;;;;;;0.10;0.10;;;;;;;;;;5068527;28;20215;-66
2022/08/31 01:56:21;;;;;;;0.08;0.08;;;;;;;;;;5062555;28;20294;-65
2022/08/31 01:58:49;;;;;;;0.10;0.10;;;;;;;;;;5069173;28;20207;-65
2022/08/31 02:01:16;;;;;;;0.00;0.00;;;;;;;;;;5062246;28;20392;-66
2022/08/31 02:03:42;;;;;;;0.10;0.10;;;;;;;;;;5069765;28;20212;-66
2022/08/31 02:06:09;;;;;;;0.10;0.10;;;;;;;;;;5060964;28;20306;-66
2022/08/31 02:08:35;;;;;;;0.00;0.00;;;;;;;;;;5070775;28;20272;-67
2022/08/31 02:11:02;;;;;;;0.00;0.00;;;;;;;;;;5060385;28;20442;-67
2022/08/31 02:13:28;;;;;;;0.10;0.10;;;;;;;;;;5071762;28;20204;-66
2022/08/31 02:15:56;;;;;;;0.00;0.00;;;;;;;;;;5059340;28;20550;-67
2022/08/31 02:18:25;;;;;;;0.10;0.10;;;;;;;;;;5072472;28;20211;-67
2022/08/31 02:20:51;;;;;;;0.00;0.00;;;;;;;;;;5058689;28;20253;-67
2022/08/31 02:23:18;;;;;;;0.10;0.10;;;;;;;;;;5072664;28;20506;-67
2022/08/31 02:25:44;;;;;;;0.10;0.10;;;;;;;;;;5057759;28;20306;-66
2022/08/31 02:28:12;;;;;;;0.10;0.10;;;;;;;;;;5073579;28;20234;-67
2022/08/31 02:30:40;;;;;;;0.00;0.00;;;;;;;;;;5057372;28;20253;-68
2022/08/31 02:33:07;;;;;;;0.05;0.05;;;;;;;;;;5074014;28;20430;-66
2022/08/31 02:35:34;;;;;;;0.10;0.10;;;;;;;;;;5056448;28;20247;-66
2022/08/31 02:38:01;;;;;;;0.10;0.10;;;;;;;;;;5074869;28;20485;-66
2022/08/31 02:40:27;;;;;;;0.10;0.10;;;;;;;;;;5055479;28;20246;-66
2022/08/31 02:42:57;;;;;;;0.10;0.10;;;;;;;;;;5075505;28;20224;-67
2022/08/31 02:45:24;;;;;;;0.10;0.10;;;;;;;;;;5055063;28;20283;-66
2022/08/31 02:47:50;;;;;;;0.07;0.07;;;;;;;;;;5075773;28;20387;-67
2022/08/31 02:50:19;;;;;;;0.00;0.00;;;;;;;;;;5054073;28;20235;-67
2022/08/31 02:52:45;;;;;;;0.10;0.10;;;;;;;;;;5076630;28;20205;-67
2022/08/31 02:55:12;;;;;;;0.10;0.10;;;;;;;;;;5053420;28;20231;-67
2022/08/31 02:57:38;;;;;;;0.10;0.10;;;;;;;;;;5077245;28;20250;-67
2022/08/31 03:00:06;;;;;;;0.08;0.08;;;;;;;;;;5062762;28;20250;-67
2022/08/31 03:02:32;;;;;;;0.10;0.10;;;;;;;;;;5051055;28;20419;-66
2022/08/31 03:05:00;;;;;;;0.10;0.10;;;;;;;;;;5062430;28;20204;-67
2022/08/31 03:07:27;;;;;;;0.10;0.10;;;;;;;;;;5067910;28;20303;-66
2022/08/31 03:09:54;;;;;;;0.10;0.10;;;;;;;;;;5062400;28;20302;-66
2022/08/31 03:12:20;;;;;;;0.03;0.03;;;;;;;;;;5067660;28;20239;-66
2022/08/31 03:14:46;;;;;;;0.10;0.10;;;;;;;;;;5062361;28;20210;-67
2022/08/31 03:17:13;;;;;;;0.00;0.00;;;;;;;;;;5067828;28;20241;-67
2022/08/31 03:19:39;;;;;;;0.10;0.10;;;;;;;;;;5062264;28;20211;-67
2022/08/31 03:22:05;;;;;;;0.10;0.10;;;;;;;;;;5067476;28;20269;-67
2022/08/31 03:24:33;;;;;;;0.00;0.00;;;;;;;;;;5062371;28;20254;-67
2022/08/31 03:27:00;;;;;;;0.10;0.10;;;;;;;;;;5066746;28;20262;-68
2022/08/31 03:29:26;;;;;;;0.10;0.10;;;;;;;;;;5062813;28;20245;-67
2022/08/31 03:31:52;;;;;;;0.10;0.10;;;;;;;;;;5065600;28;20575;-67
2022/08/31 03:34:19;;;;;;;0.05;0.05;;;;;;;;;;5063944;28;20226;-67
2022/08/31 03:36:45;;;;;;;0.08;0.08;;;;;;;;;;5064755;28;20249;-67
2022/08/31 03:39:11;;;;;;;0.00;0.00;;;;;;;;;;5065073;28;20244;-66
2022/08/31 03:41:39;;;;;;;0.10;0.10;;;;;;;;;;5067959;28;20258;-66
2022/08/31 03:44:05;;;;;;;0.10;0.10;;;;;;;;;;5069828;28;20204;-67
2022/08/31 03:46:33;;;;;;;0.10;0.10;;;;;;;;;;5067005;28;20437;-67
2022/08/31 03:49:00;;;;;;;0.10;0.10;;;;;;;;;;5070141;28;20200;-67
2022/08/31 03:51:26;;;;;;;0.10;0.10;;;;;;;;;;5066203;28;20398;-66
2022/08/31 03:53:53;;;;;;;0.10;0.10;;;;;;;;;;5071166;28;20202;-66
2022/08/31 03:56:19;;;;;;;0.00;0.00;;;;;;;;;;5064882;28;21305;-67
2022/08/31 03:58:47;;;;;;;0.00;0.00;;;;;;;;;;5071615;28;20320;-66
2022/08/31 04:01:13;;;;;;;0.00;0.00;;;;;;;;;;5064017;28;20464;-67
2022/08/31 04:03:40;;;;;;;0.10;0.10;;;;;;;;;;5072438;28;20237;-67
2022/08/31 04:06:08;;;;;;;0.00;0.00;;;;;;;;;;5063219;28;20239;-67
2022/08/31 04:08:34;;;;;;;0.10;0.10;;;;;;;;;;5073258;28;20211;-67
2022/08/31 04:11:05;;;;;;;0.00;0.00;;;;;;;;;;5062190;28;20337;-67
2022/08/31 04:13:31;;;;;;;0.10;0.10;;;;;;;;;;5073766;28;20188;-67
2022/08/31 04:16:00;;;;;;;0.03;0.03;;;;;;;;;;5061868;28;20258;-67
2022/08/31 04:18:26;;;;;;;0.10;0.10;;;;;;;;;;5074332;28;20246;-67
2022/08/31 04:20:52;;;;;;;0.10;0.10;;;;;;;;;;5061347;28;20432;-67
2022/08/31 04:23:19;;;;;;;0.10;0.10;;;;;;;;;;5074859;28;20235;-67
2022/08/31 04:25:45;;;;;;;0.08;0.08;;;;;;;;;;5060311;28;20313;-66
2022/08/31 04:28:11;;;;;;;0.10;0.10;;;;;;;;;;5075258;28;20211;-67
2022/08/31 04:30:39;;;;;;;0.10;0.10;;;;;;;;;;5059127;28;20310;-67
2022/08/31 04:33:06;;;;;;;0.00;0.00;;;;;;;;;;5076417;28;20204;-68
2022/08/31 04:35:33;;;;;;;0.10;0.10;;;;;;;;;;5058474;28;20265;-68
2022/08/31 04:37:59;;;;;;;0.10;0.10;;;;;;;;;;5076998;28;20208;-67
2022/08/31 04:40:25;;;;;;;0.08;0.08;;;;;;;;;;5057445;28;20280;-67
2022/08/31 04:42:52;;;;;;;0.10;0.10;;;;;;;;;;5078106;28;20538;-66
2022/08/31 04:45:18;;;;;;;0.10;0.10;;;;;;;;;;5056643;28;20224;-67
2022/08/31 04:47:45;;;;;;;0.10;0.10;;;;;;;;;;5078739;28;20204;-67
2022/08/31 04:50:15;;;;;;;0.10;0.10;;;;;;;;;;5055427;28;20275;-67
2022/08/31 04:52:41;;;;;;;0.03;0.03;;;;;;;;;;5079285;28;20204;-69
2022/08/31 04:55:08;;;;;;;0.10;0.10;;;;;;;;;;5054774;28;20234;-67
2022/08/31 04:57:34;;;;;;;0.10;0.10;;;;;;;;;;5080102;28;20384;-68
2022/08/31 05:00:01;;;;;;;0.00;0.00;;;;;;;;;;5064742;28;20308;-67
2022/08/31 05:02:28;;;;;;;0.00;0.00;;;;;;;;;;5069744;28;20297;-67
2022/08/31 05:04:54;;;;;;;0.10;0.10;;;;;;;;;;5064721;28;20212;-68
2022/08/31 05:07:25;;;;;;;0.10;0.10;;;;;;;;;;5070149;28;20242;-68
2022/08/31 05:09:51;;;;;;;0.03;0.03;;;;;;;;;;5064694;28;20195;-67
2022/08/31 05:12:18;;;;;;;0.07;0.07;;;;;;;;;;5069887;28;20252;-68
2022/08/31 05:14:44;;;;;;;0.10;0.10;;;;;;;;;;5064833;28;20275;-67
2022/08/31 05:17:10;;;;;;;0.10;0.10;;;;;;;;;;5070176;28;20314;-67
2022/08/31 05:19:38;;;;;;;0.10;0.10;;;;;;;;;;5064563;28;20205;-68
2022/08/31 05:22:04;;;;;;;0.10;0.10;;;;;;;;;;5069442;28;20243;-67
2022/08/31 05:24:35;;;;;;;0.10;0.10;;;;;;;;;;5064941;28;20234;-67
2022/08/31 05:27:02;;;;;;;0.10;0.10;;;;;;;;;;5069126;28;20478;-69
2022/08/31 05:29:28;;;;;;;0.10;0.10;;;;;;;;;;5065267;28;20231;-68
2022/08/31 05:31:55;;;;;;;0.10;0.10;;;;;;;;;;5068403;28;20243;-67
2022/08/31 05:34:22;;;;;;;0.10;0.10;;;;;;;;;;5065315;28;20278;-67
2022/08/31 05:36:51;;;;;;;0.10;0.10;;;;;;;;;;5067190;28;20285;-69
2022/08/31 05:39:18;;;;;;;0.10;0.10;;;;;;;;;;5066330;28;20229;-67
2022/08/31 05:41:46;;;;;;;0.00;0.00;;;;;;;;;;5066622;28;20240;-67
2022/08/31 05:44:13;;;;;;;0.10;0.10;;;;;;;;;;5066805;28;20293;-67
2022/08/31 05:46:40;;;;;;;0.10;0.10;;;;;;;;;;5065836;28;20486;-67
2022/08/31 05:49:07;;;;;;;0.10;0.10;;;;;;;;;;5067472;28;20278;-68
2022/08/31 05:51:34;;;;;;;0.10;0.10;;;;;;;;;;5064905;28;20242;-67
2022/08/31 05:54:01;;;;;;;0.10;0.10;;;;;;;;;;5067811;28;20369;-66
2022/08/31 05:56:29;;;;;;;0.07;0.07;;;;;;;;;;5064175;28;20239;-67
2022/08/31 05:58:57;;;;;;;0.10;0.10;;;;;;;;;;5068600;28;20466;-67
2022/08/31 06:01:24;;;;;;;0.10;0.10;;;;;;;;;;5063362;28;20489;-68
2022/08/31 06:03:52;;;;;;;0.10;0.10;;;;;;;;;;5068358;28;20468;-66
2022/08/31 06:06:19;;;;;;;0.10;0.10;;;;;;;;;;5062502;28;20309;-66
2022/08/31 06:08:46;;;;;;;0.10;0.10;;;;;;;;;;5069209;28;20210;-67
2022/08/31 06:11:18;;;;;;;0.10;0.10;;;;;;;;;;5061482;28;20250;-67
2022/08/31 06:13:44;;;;;;;0.10;0.10;;;;;;;;;;5069783;28;20191;-66
2022/08/31 06:16:12;;;;;;;0.10;0.10;;;;;;;;;;5061222;28;20250;-65
2022/08/31 06:18:39;;;;;;;0.10;0.10;;;;;;;;;;5070382;28;20206;-67
2022/08/31 06:21:08;;;;;;;0.10;0.10;;;;;;;;;;5060784;28;20239;-67
2022/08/31 06:23:34;;;;;;;0.00;0.00;;;;;;;;;;5070751;28;20227;-68
2022/08/31 06:26:01;;;;;;;0.10;0.10;;;;;;;;;;5060188;28;20492;-67
2022/08/31 06:28:31;;;;;;;0.10;0.10;;;;;;;;;;5071424;28;20429;-68
2022/08/31 06:30:58;;;;;;;0.00;0.00;;;;;;;;;;5059622;28;20451;-67
2022/08/31 06:33:25;;;;;;;0.08;0.08;;;;;;;;;;5071525;28;20441;-67
2022/08/31 06:35:52;;;;;;;0.10;0.10;;;;;;;;;;5058710;28;20241;-66
2022/08/31 06:38:18;;;;;;;0.10;0.10;;;;;;;;;;5072357;28;20206;-68
2022/08/31 06:40:44;;;;;;;0.10;0.10;;;;;;;;;;5057688;28;20285;-67
2022/08/31 06:43:11;;;;;;;0.10;0.10;;;;;;;;;;5073458;28;20224;-67
2022/08/31 06:45:37;;;;;;;0.10;0.10;;;;;;;;;;5056808;28;20284;-65
2022/08/31 06:48:04;;;;;;;0.10;0.10;;;;;;;;;;5074160;28;20204;-67
2022/08/31 06:50:31;;;;;;;0.10;0.10;;;;;;;;;;5055893;28;20278;-67
2022/08/31 06:52:58;;;;;;;0.10;0.10;;;;;;;;;;5074991;28;20270;-67
2022/08/31 06:55:24;;;;;;;0.00;0.00;;;;;;;;;;5055228;28;20246;-67
2022/08/31 06:57:51;;;;;;;0.00;0.00;;;;;;;;;;5075810;28;20251;-66
2022/08/31 07:00:17;;;;;;;0.10;0.10;;;;;;;;;;5054138;28;20205;-67
2022/08/31 07:02:44;;;;;;;0.10;0.10;;;;;;;;;;5076564;28;20276;-67
2022/08/31 07:05:10;;;;;;;0.00;0.00;;;;;;;;;;5052665;28;20366;-67
2022/08/31 07:07:38;;;;;;;0.10;0.10;;;;;;;;;;5077286;28;20212;-67
2022/08/31 07:10:07;;;;;;;0.05;0.05;;;;;;;;;;5061975;28;20229;-67
2022/08/31 07:12:34;;;;;;;0.00;0.00;;;;;;;;;;5077417;28;20218;-67
2022/08/31 07:15:00;;;;;;;0.08;0.08;;;;;;;;;;5061461;28;20278;-66
2022/08/31 07:17:26;;;;;;;0.10;0.10;;;;;;;;;;5067893;28;20247;-67
2022/08/31 07:19:53;;;;;;;0.00;0.00;;;;;;;;;;5062395;28;20202;-67
2022/08/31 07:22:19;;;;;;;0.10;0.10;;;;;;;;;;5067724;28;20250;-67
2022/08/31 07:24:47;;;;;;;0.10;0.10;;;;;;;;;;5062645;28;20511;-67
2022/08/31 07:27:17;;;;;;;0.10;0.10;;;;;;;;;;5067657;28;20249;-67
2022/08/31 07:29:43;;;;;;;0.10;0.10;;;;;;;;;;5062570;28;20231;-67
2022/08/31 07:32:11;;;;;;;0.08;0.08;;;;;;;;;;5067815;28;20499;-67
2022/08/31 07:34:38;;;;;;;0.10;0.10;;;;;;;;;;5062341;28;20239;-66
2022/08/31 07:42:36;;;;;;;0.10;0.10;;;;;;;;;;5051020;28;20438;-67
2022/08/31 07:45:05;;;;;;;0.10;0.10;;;;;;;;;;5061845;28;20250;-67
2022/08/31 07:47:31;;;;;;;0.10;0.10;;;;;;;;;;5050572;28;20234;-66
2022/08/31 07:49:59;;;;;;;0.00;0.00;;;;;;;;;;5062077;28;20220;-66
2022/08/31 07:52:27;;;;;;;0.10;0.10;;;;;;;;;;5067213;28;20262;-67
2022/08/31 07:54:56;;;;;;;0.10;0.10;;;;;;;;;;5062011;28;20277;-66
2022/08/31 07:57:24;;;;;;;0.00;0.00;;;;;;;;;;5067390;28;20250;-66
2022/08/31 07:59:54;;;;;;;0.00;0.00;;;;;;;;;;5061998;28;20233;-67
2022/08/31 08:02:22;;;;;;;0.10;0.10;;;;;;;;;;5067248;28;20243;-67
2022/08/31 08:04:52;;;;;;;0.00;0.00;;;;;;;;;;5062016;28;20412;-66
2022/08/31 08:07:19;;;;;;;0.10;0.10;;;;;;;;;;5067366;28;20263;-67
2022/08/31 08:09:45;;;;;;;0.00;0.00;;;;;;;;;;5062173;28;20273;-67
2022/08/31 08:12:13;;;;;;;0.10;0.10;;;;;;;;;;5067350;28;20312;-67
2022/08/31 08:14:40;;;;;;;0.10;0.10;;;;;;;;;;5062195;28;20210;-67
2022/08/31 08:17:07;;;;;;;0.10;0.10;;;;;;;;;;5067413;28;20442;-67
2022/08/31 08:19:33;;;;;;;0.08;0.08;;;;;;;;;;5062219;28;20211;-67
2022/08/31 08:22:01;;;;;;;0.00;0.00;;;;;;;;;;5066282;28;20489;-67
2022/08/31 08:24:28;;;;;;;0.03;0.03;;;;;;;;;;5062344;28;20293;-66
2022/08/31 08:26:54;;;;;;;0.03;0.03;;;;;;;;;;5068747;28;20535;-66
2022/08/31 08:29:23;;;;;;;0.00;0.00;;;;;;;;;;5067013;28;20212;-70
2022/08/31 08:31:51;;;;;;;0.00;0.00;;;;;;;;;;5068256;28;20252;-68
2022/08/31 08:34:18;;;;;;;0.10;0.10;;;;;;;;;;5067243;28;20203;-68
2022/08/31 08:36:45;;;;;;;0.00;0.00;;;;;;;;;;5067461;28;20246;-68
2022/08/31 08:39:11;;;;;;;0.10;0.10;;;;;;;;;;5067508;28;20283;-67
2022/08/31 08:41:39;;;;;;;0.10;0.10;;;;;;;;;;5066244;28;20241;-69
2022/08/31 08:44:08;;;;;;;0.00;0.00;;;;;;;;;;5068298;28;20260;-68
2022/08/31 08:46:39;;;;;;;0.08;0.08;;;;;;;;;;5065893;28;20278;-69
2022/08/31 08:49:10;;;;;;;0.10;0.10;;;;;;;;;;5068326;28;20205;-69
2022/08/31 08:51:38;;;;;;;0.10;0.10;;;;;;;;;;5066143;28;20242;-68
2022/08/31 08:54:09;;;;;;;0.00;0.00;;;;;;;;;;5068597;28;20452;-69
2022/08/31 08:56:47;;;;;;;0.00;0.00;;;;;;;;;;5065530;28;20246;-72
2022/08/31 08:59:14;;;;;;;0.00;0.00;;;;;;;;;;5067339;28;20199;-71
2022/08/31 09:01:45;;;;;;;0.00;0.00;;;;;;;;;;5066375;28;20244;-72
2022/08/31 09:04:16;;;;;;;0.10;0.10;;;;;;;;;;5067974;28;20217;-72
2022/08/31 09:06:53;;;;;;;0.10;0.10;;;;;;;;;;5065712;28;20236;-75
2022/08/31 09:09:26;;;;;;;0.10;0.10;;;;;;;;;;5067989;28;20265;-73
2022/08/31 09:11:58;;;;;;;0.00;0.00;;;;;;;;;;5068024;28;20249;-70
2022/08/31 09:14:33;;;;;;;0.10;0.10;;;;;;;;;;5065225;28;20258;-74
2022/08/31 09:17:19;;;;;;;0.00;0.00;;;;;;;;;;5068887;28;20465;-78
2022/08/31 09:19:58;;;;;;;0.00;0.00;;;;;;;;;;5064564;28;20425;-77
2022/08/31 09:22:25;;;;;;;0.00;0.00;;;;;;;;;;5069124;28;20269;-76
2022/08/31 09:24:55;;;;;;;0.00;0.00;;;;;;;;;;5064616;28;20240;-72
2022/08/31 09:27:39;;;;;;;0.10;0.10;;;;;;;;;;5069441;28;20476;-74
2022/08/31 09:30:06;;;;;;;0.00;0.00;;;;;;;;;;5063192;28;20202;-74
2022/08/31 09:32:35;;;;;;;0.03;0.03;;;;;;;;;;5079548;28;20285;-76
2022/08/31 09:35:03;;;;;;;0.00;0.00;;;;;;;;;;5064003;28;20218;-71
2022/08/31 09:37:36;;;;;;;0.10;0.10;;;;;;;;;;5068314;28;20443;-72
2022/08/31 09:40:14;;;;;;;0.10;0.10;;;;;;;;;;5063735;28;20206;-70
2022/08/31 09:42:42;;;;;;;0.00;0.00;;;;;;;;;;5055822;28;20221;-70
2022/08/31 09:45:11;;;;;;;0.10;0.10;;;;;;;;;;5053600;28;20294;-71
2022/08/31 09:47:50;;;;;;;0.03;0.03;;;;;;;;;;5078286;28;20204;-71
2022/08/31 09:50:24;;;;;;;0.00;0.00;;;;;;;;;;5054853;28;20390;-70
2022/08/31 09:55:35;;;;;;;0.10;0.10;;;;;;;;;;5056964;28;20377;-68
2022/08/31 09:58:03;;;;;;;0.03;0.03;;;;;;;;;;5075186;28;20242;-68
2022/08/31 10:00:34;;;;;;;0.10;0.10;;;;;;;;;;5056340;28;20671;-68
2022/08/31 10:03:07;;;;;;;0.10;0.10;;;;;;;;;;5075042;28;20209;-71
2022/08/31 10:05:39;;;;;;;0.00;0.00;;;;;;;;;;5056565;28;20375;-71
2022/08/31 10:08:12;;;;;;;0.05;0.05;;;;;;;;;;5074155;28;20206;-69
2022/08/31 10:10:41;;;;;;;0.00;0.00;;;;;;;;;;5056773;28;20280;-69
2022/08/31 10:13:12;;;;;;;0.03;0.03;;;;;;;;;;5074679;28;20211;-67
2022/08/31 10:15:40;;;;;;;0.00;0.00;;;;;;;;;;5057206;28;20242;-66
2022/08/31 10:18:12;;;;;;;0.00;0.00;;;;;;;;;;5074295;28;20204;-67
2022/08/31 10:20:44;;;;;;;0.00;0.00;;;;;;;;;;5057217;28;20336;-70
2022/08/31 10:23:15;;;;;;;0.05;0.05;;;;;;;;;;5073886;28;20203;-75
2022/08/31 10:25:51;;;;;;;0.00;0.00;;;;;;;;;;5057693;28;20335;-73
2022/08/31 10:28:20;;;;;;;0.00;0.00;;;;;;;;;;5072950;28;20206;-81
2022/08/31 10:30:50;;;;;;;0.10;0.10;;;;;;;;;;5058150;28;20298;-71
2022/08/31 10:33:21;;;;;;;0.00;0.00;;;;;;;;;;5072737;28;20246;-73
2022/08/31 10:35:53;;;;;;;0.10;0.10;;;;;;;;;;5058008;28;20475;-72
2022/08/31 10:38:24;;;;;;;0.00;0.00;;;;;;;;;;5072510;28;20258;-66
2022/08/31 10:41:13;;;;;;;0.00;0.00;;;;;;;;;;5058786;28;20499;-72
2022/08/31 10:43:44;;;;;;;0.00;0.00;;;;;;;;;;5069839;28;20869;-71
2022/08/31 10:46:11;;;;;;;0.00;0.00;;;;;;;;;;5060500;28;20238;-69
2022/08/31 10:48:43;;;;;;;0.10;0.10;;;;;;;;;;5069354;28;20208;-71
2022/08/31 10:51:16;;;;;;;0.08;0.08;;;;;;;;;;5059998;28;20259;-70
2022/08/31 10:53:50;;;;;;;0.00;0.00;;;;;;;;;;5068788;28;20208;-68
2022/08/31 10:56:19;;;;;;;0.00;0.00;;;;;;;;;;5061600;28;20397;-70
2022/08/31 10:58:56;;;;;;;0.00;0.00;;;;;;;;;;5068157;28;20234;-68
2022/08/31 11:01:26;;;;;;;0.00;0.00;;;;;;;;;;5062334;28;20289;-66
2022/08/31 11:04:05;;;;;;;0.00;0.00;;;;;;;;;;5067461;28;20476;-66
2022/08/31 11:06:35;;;;;;;0.00;0.00;;;;;;;;;;5063549;28;20301;-67
2022/08/31 11:09:04;;;;;;;0.03;0.03;;;;;;;;;;5066824;28;20204;-67
2022/08/31 11:11:35;;;;;;;0.00;0.00;;;;;;;;;;5063287;28;20249;-68
2022/08/31 11:14:13;;;;;;;0.00;0.00;;;;;;;;;;5066619;28;20203;-66
2022/08/31 11:16:48;;;;;;;0.00;0.00;;;;;;;;;;5064443;28;20281;-67
2022/08/31 11:19:25;;;;;;;0.00;0.00;;;;;;;;;;5064708;28;20203;-66
2022/08/31 11:21:58;;;;;;;0.10;0.10;;;;;;;;;;5065727;28;20255;-67
2022/08/31 11:24:46;;;;;;;0.10;0.10;;;;;;;;;;5063224;28;20277;-68
2022/08/31 11:27:22;;;;;;;0.00;0.00;;;;;;;;;;5045489;28;20262;-66
2022/08/31 11:29:55;;;;;;;0.10;0.10;;;;;;;;;;5062635;28;20270;-66
2022/08/31 11:32:23;;;;;;;0.08;0.08;;;;;;;;;;5067682;28;20239;-66
2022/08/31 11:34:52;;;;;;;0.00;0.00;;;;;;;;;;5062562;28;20275;-66
2022/08/31 11:37:38;;;;;;;0.00;0.00;;;;;;;;;;5067559;28;20238;-67
2022/08/31 11:40:10;;;;;;;0.10;0.10;;;;;;;;;;5062016;28;20279;-66
2022/08/31 11:42:56;;;;;;;0.10;0.10;;;;;;;;;;5050807;28;20218;-67
2022/08/31 11:45:26;;;;;;;0.00;0.00;;;;;;;;;;5054298;28;20273;-67
2022/08/31 11:47:53;;;;;;;0.00;0.00;;;;;;;;;;5074552;28;20235;-67
2022/08/31 11:50:53;;;;;;;0.00;0.00;;;;;;;;;;5054078;28;20362;-66
2022/08/31 11:53:24;;;;;;;0.00;0.00;;;;;;;;;;5071495;28;20272;-66
2022/08/31 11:55:58;;;;;;;0.00;0.00;;;;;;;;;;5057698;28;20246;-67
2022/08/31 11:58:25;;;;;;;0.10;0.10;;;;;;;;;;5071054;28;20211;-66
2022/08/31 12:00:58;;;;;;;0.00;0.00;;;;;;;;;;5058765;28;20454;-67
2022/08/31 12:03:38;;;;;;;0.00;0.00;;;;;;;;;;5075278;28;20448;-67
2022/08/31 12:06:05;;;;;;;0.00;0.00;;;;;;;;;;5062852;28;20429;-66
2022/08/31 12:08:50;;;;;;;0.00;0.00;;;;;;;;;;5073710;28;20254;-67
2022/08/31 12:11:19;;;;;;;0.00;0.00;;;;;;;;;;5064143;28;20241;-67
2022/08/31 12:13:50;;;;;;;0.00;0.00;;;;;;;;;;5072117;28;20204;-66
2022/08/31 12:16:23;;;;;;;0.00;0.00;;;;;;;;;;5064620;28;20249;-66
2022/08/31 12:24:45;;;;;;;0.00;0.00;;;;;;;;;;5065697;28;20495;-67
2022/08/31 12:27:21;;;;;;;0.10;0.10;;;;;;;;;;5070595;28;20262;-66
2022/08/31 12:29:48;;;;;;;0.00;0.00;;;;;;;;;;5065687;28;20206;-66
2022/08/31 12:32:22;;;;;;;0.10;0.10;;;;;;;;;;5070566;28;20314;-67
2022/08/31 12:34:50;;;;;;;0.05;0.05;;;;;;;;;;5065725;28;20361;-67
2022/08/31 12:37:26;;;;;;;0.00;0.00;;;;;;;;;;5070592;28;20245;-66
2022/08/31 12:40:12;;;;;;;0.00;0.00;;;;;;;;;;5065629;28;20219;-69
2022/08/31 12:42:40;;;;;;;0.00;0.00;;;;;;;;;;5056108;28;20212;-67
2022/08/31 12:45:07;;;;;;;0.00;0.00;;;;;;;;;;5055272;28;20232;-66
2022/08/31 12:47:37;;;;;;;0.00;0.00;;;;;;;;;;5080139;28;20447;-67
2022/08/31 12:50:10;;;;;;;0.00;0.00;;;;;;;;;;5065507;28;20265;-66
2022/08/31 12:52:42;;;;;;;0.00;0.00;;;;;;;;;;5053593;28;20204;-66
2022/08/31 12:55:22;;;;;;;0.10;0.10;;;;;;;;;;5055526;28;20207;-67
2022/08/31 12:57:51;;;;;;;0.00;0.00;;;;;;;;;;5078532;28;20226;-66
2022/08/31 13:00:22;;;;;;;0.00;0.00;;;;;;;;;;5056317;28;20211;-67
2022/08/31 13:02:50;;;;;;;0.00;0.00;;;;;;;;;;5077925;28;20232;-67
2022/08/31 13:05:20;;;;;;;0.00;0.00;;;;;;;;;;5056111;28;20372;-67
2022/08/31 13:07:46;;;;;;;0.00;0.00;;;;;;;;;;5078175;28;20196;-67
2022/08/31 13:10:14;;;;;;;0.00;0.00;;;;;;;;;;5055114;28;20257;-67
2022/08/31 13:12:49;;;;;;;0.00;0.00;;;;;;;;;;5077674;28;20192;-67
2022/08/31 13:15:22;;;;;;;0.00;0.00;;;;;;;;;;5056152;28;20204;-67
2022/08/31 13:17:49;;;;;;;0.00;0.00;;;;;;;;;;5077905;28;20223;-68
2022/08/31 13:20:18;;;;;;;0.00;0.00;;;;;;;;;;5055386;28;20204;-67
2022/08/31 13:22:47;;;;;;;0.00;0.00;;;;;;;;;;5078435;28;20417;-66
2022/08/31 13:25:15;;;;;;;0.00;0.00;;;;;;;;;;5054753;28;20316;-67
2022/08/31 13:27:46;;;;;;;0.05;0.05;;;;;;;;;;5078780;28;20206;-66
2022/08/31 13:30:17;;;;;;;0.00;0.00;;;;;;;;;;5054841;28;20246;-67
2022/08/31 13:32:45;;;;;;;0.00;0.00;;;;;;;;;;5078752;28;20487;-67
2022/08/31 13:35:14;;;;;;;0.00;0.00;;;;;;;;;;5054796;28;20203;-67
2022/08/31 13:37:42;;;;;;;0.00;0.00;;;;;;;;;;5078346;28;20204;-67
2022/08/31 13:40:10;;;;;;;0.10;0.10;;;;;;;;;;5054223;28;20208;-66
2022/08/31 13:42:40;;;;;;;0.00;0.00;;;;;;;;;;5078759;28;20192;-66
2022/08/31 13:45:08;;;;;;;0.00;0.00;;;;;;;;;;5056691;28;20562;-66
2022/08/31 13:47:36;;;;;;;0.00;0.00;;;;;;;;;;5078698;28;20216;-66
2022/08/31 13:50:06;;;;;;;0.00;0.00;;;;;;;;;;5064280;28;20235;-67
2022/08/31 13:52:32;;;;;;;0.00;0.00;;;;;;;;;;5052179;28;20290;-66
2022/08/31 13:55:00;;;;;;;0.00;0.00;;;;;;;;;;5064160;28;20208;-67
2022/08/31 13:57:28;;;;;;;0.00;0.00;;;;;;;;;;5068960;28;20450;-66
2022/08/31 13:59:55;;;;;;;0.00;0.00;;;;;;;;;;5064104;28;20271;-67
2022/08/31 14:02:30;;;;;;;0.10;0.10;;;;;;;;;;5068802;28;20314;-67
2022/08/31 14:05:02;;;;;;;0.00;0.00;;;;;;;;;;5063432;28;20299;-66
2022/08/31 14:07:30;;;;;;;0.00;0.00;;;;;;;;;;5068805;28;20243;-67
2022/08/31 14:09:57;;;;;;;0.00;0.00;;;;;;;;;;5063887;28;20259;-67
2022/08/31 14:12:35;;;;;;;0.10;0.10;;;;;;;;;;5068641;28;20251;-67
2022/08/31 14:15:08;;;;;;;0.00;0.00;;;;;;;;;;5063240;28;20207;-66
2022/08/31 14:17:35;;;;;;;0.10;0.10;;;;;;;;;;5052234;28;20212;-67
2022/08/31 14:20:17;;;;;;;0.00;0.00;;;;;;;;;;5063699;28;20238;-67
2022/08/31 14:22:48;;;;;;;0.00;0.00;;;;;;;;;;5062508;28;20307;-66
2022/08/31 14:25:18;;;;;;;0.00;0.00;;;;;;;;;;5054181;28;20258;-66
2022/08/31 14:27:45;;;;;;;0.00;0.00;;;;;;;;;;5077017;28;20195;-67
2022/08/31 14:30:12;;;;;;;0.00;0.00;;;;;;;;;;5053309;28;20273;-66
2022/08/31 14:32:44;;;;;;;0.00;0.00;;;;;;;;;;5077606;28;20200;-67
2022/08/31 14:35:13;;;;;;;0.00;0.00;;;;;;;;;;5053845;28;20406;-66
2022/08/31 14:37:41;;;;;;;0.00;0.00;;;;;;;;;;5077677;28;20262;-67
2022/08/31 14:40:11;;;;;;;0.00;0.00;;;;;;;;;;5063344;28;20250;-66
2022/08/31 14:42:38;;;;;;;0.10;0.10;;;;;;;;;;5051482;28;20208;-66
2022/08/31 14:45:06;;;;;;;0.00;0.00;;;;;;;;;;5062984;28;20226;-66
2022/08/31 14:47:34;;;;;;;0.00;0.00;;;;;;;;;;5051274;28;20450;-67
2022/08/31 14:50:05;;;;;;;0.00;0.00;;;;;;;;;;5063243;28;20211;-67
2022/08/31 14:52:33;;;;;;;0.00;0.00;;;;;;;;;;5051315;28;20208;-66
2022/08/31 14:55:01;;;;;;;0.00;0.00;;;;;;;;;;5063107;28;20250;-67
2022/08/31 14:57:30;;;;;;;0.00;0.00;;;;;;;;;;5067818;28;20243;-67
2022/08/31 14:59:59;;;;;;;0.00;0.00;;;;;;;;;;5062899;28;20242;-66
2022/08/31 15:02:26;;;;;;;0.00;0.00;;;;;;;;;;5067944;28;20250;-67
2022/08/31 15:05:00;;;;;;;0.00;0.00;;;;;;;;;;5063102;28;20301;-68
2022/08/31 15:07:31;;;;;;;0.00;0.00;;;;;;;;;;5067961;28;20331;-67
2022/08/31 15:09:57;;;;;;;0.00;0.00;;;;;;;;;;5062933;28;20371;-67
2022/08/31 15:12:24;;;;;;;0.00;0.00;;;;;;;;;;5067558;28;20314;-66